Time;durP1;ratioP1;P1;durP2;ratioP2;P2;SDS_P1;SDS_P2;PMS_P1;PMS_P2;Temp;Humidity;BMP_temperature;BMP_pressure;BME280_temperature;BME280_humidity;BME280_pressure;Samples;Min_cycle;Max_cycle;Signal;HPM_P1;HPM_P2
2021/05/12 00:00:51;;;;;;;32.67;21.00;;;;;;;12.77;100.00;97466.25;3759061;78;43130;-25
2021/05/12 00:05:58;;;;;;;34.05;21.00;;;;;;;12.79;100.00;97466.89;3755179;78;43719;-25
2021/05/12 00:11:04;;;;;;;30.60;20.25;;;;;;;12.81;100.00;97479.38;3759925;78;44019;-25
2021/05/12 00:16:10;;;;;;;29.57;19.82;;;;;;;12.78;100.00;97485.48;3758659;78;43406;-25
2021/05/12 00:21:26;;;;;;;28.40;19.10;;;;;;;12.82;100.00;97478.34;3755348;78;43972;-25
2021/05/12 00:26:26;;;;;;;28.42;18.40;;;;;;;12.73;100.00;97474.95;3750035;78;44074;-25
2021/05/12 00:31:32;;;;;;;28.20;18.70;;;;;;;12.72;100.00;97479.51;3750155;78;43062;-24
2021/05/12 00:36:40;;;;;;;26.25;17.42;;;;;;;12.80;100.00;97470.41;3746869;78;44392;-24
2021/05/12 00:41:45;;;;;;;26.37;17.32;;;;;;;12.80;100.00;97474.47;3759035;78;43554;-24
2021/05/12 00:46:53;;;;;;;24.43;16.80;;;;;;;12.78;100.00;97473.83;3752271;78;44199;-24
2021/05/12 00:52:00;;;;;;;23.35;16.40;;;;;;;12.75;100.00;97466.95;3746152;78;43412;-24
2021/05/12 00:57:07;;;;;;;20.55;14.85;;;;;;;12.77;100.00;97478.91;3744399;78;43718;-24
2021/05/12 01:02:14;;;;;;;20.60;15.00;;;;;;;12.78;100.00;97479.23;3746521;78;43455;-23
2021/05/12 01:07:20;;;;;;;21.85;14.78;;;;;;;12.80;100.00;97486.63;3742604;78;44044;-24
2021/05/12 01:12:26;;;;;;;23.07;15.28;;;;;;;12.73;100.00;97484.41;3749451;78;44004;-24
2021/05/12 01:17:32;;;;;;;24.12;16.45;;;;;;;12.81;100.00;97488.83;3749482;78;43320;-22
2021/05/12 01:22:38;;;;;;;18.45;13.08;;;;;;;12.84;100.00;97498.72;3748555;78;43693;-22
2021/05/12 01:27:45;;;;;;;14.05;10.50;;;;;;;12.79;100.00;97494.42;3741282;78;43422;-22
2021/05/12 01:32:52;;;;;;;11.45;8.55;;;;;;;12.71;100.00;97499.45;3757386;78;44095;-22
2021/05/12 01:37:58;;;;;;;11.20;7.72;;;;;;;12.62;100.00;97501.50;3758437;78;44070;-22
2021/05/12 01:43:03;;;;;;;9.20;7.08;;;;;;;12.60;100.00;97496.80;3751958;78;44074;-22
2021/05/12 01:48:12;;;;;;;10.50;6.85;;;;;;;12.58;100.00;97497.51;3753124;78;43358;-22
2021/05/12 01:53:19;;;;;;;7.53;6.25;;;;;;;12.56;100.00;97491.46;3762145;78;43695;-22
2021/05/12 01:58:26;;;;;;;6.92;5.65;;;;;;;12.51;100.00;97491.23;3749355;78;43487;-22
2021/05/12 02:03:31;;;;;;;7.90;6.10;;;;;;;12.49;100.00;97489.23;3748547;78;43377;-22
2021/05/12 02:08:37;;;;;;;9.05;6.05;;;;;;;12.45;100.00;97490.16;3783618;77;43413;-22
2021/05/12 02:13:45;;;;;;;8.85;6.85;;;;;;;12.43;100.00;97494.91;3777283;77;43095;-22
2021/05/12 02:18:51;;;;;;;6.65;5.60;;;;;;;12.42;100.00;97497.80;3778349;77;43682;-22
2021/05/12 02:23:57;;;;;;;6.80;4.47;;;;;;;12.42;100.00;97495.09;3776154;77;44011;-23
2021/05/12 02:29:03;;;;;;;5.62;4.85;;;;;;;12.38;100.00;97486.55;3786289;77;44465;-23
2021/05/12 02:34:10;;;;;;;4.15;3.62;;;;;;;12.38;100.00;97487.90;3798596;77;42974;-23
2021/05/12 02:39:16;;;;;;;4.42;3.92;;;;;;;12.32;100.00;97486.00;3792799;77;44060;-23
2021/05/12 02:44:22;;;;;;;3.55;3.00;;;;;;;12.30;100.00;97482.66;3777553;77;43966;-22
2021/05/12 02:49:29;;;;;;;5.30;4.20;;;;;;;12.18;100.00;97494.48;3776538;77;44066;-22
2021/05/12 02:54:35;;;;;;;4.45;3.98;;;;;;;12.26;100.00;97489.46;3781062;77;43972;-23
2021/05/12 02:59:41;;;;;;;5.30;4.40;;;;;;;12.25;100.00;97481.89;3771187;77;43441;-19
2021/05/12 03:04:48;;;;;;;5.50;4.33;;;;;;;12.22;100.00;97474.70;3723395;78;44054;-20
2021/05/12 03:09:54;;;;;;;5.78;4.90;;;;;;;12.18;100.00;97472.88;3782516;77;43435;-22
2021/05/12 03:15:01;;;;;;;7.35;5.20;;;;;;;12.22;100.00;97470.13;3776937;77;43439;-23
2021/05/12 03:20:09;;;;;;;6.62;5.05;;;;;;;12.20;100.00;97478.92;3778684;77;44021;-23
2021/05/12 03:25:17;;;;;;;6.65;5.45;;;;;;;12.14;100.00;97490.52;3781671;77;43709;-22
2021/05/12 03:30:26;;;;;;;7.95;5.90;;;;;;;12.18;100.00;97493.13;3779154;77;43357;-23
2021/05/12 03:35:33;;;;;;;7.40;5.78;;;;;;;12.19;100.00;97496.16;3779946;77;44103;-23
2021/05/12 03:40:41;;;;;;;8.90;6.35;;;;;;;12.11;100.00;97500.35;3772201;77;43951;-23
2021/05/12 03:45:47;;;;;;;9.13;6.95;;;;;;;12.17;100.00;97494.19;3780217;77;43013;-22
2021/05/12 03:50:53;;;;;;;10.50;7.35;;;;;;;12.19;100.00;97502.91;3775572;77;43720;-23
2021/05/12 03:55:59;;;;;;;9.90;7.55;;;;;;;12.22;100.00;97501.17;3784703;77;43411;-22
2021/05/12 04:01:05;;;;;;;10.60;8.28;;;;;;;12.19;100.00;97494.80;3786132;77;43361;-22
2021/05/12 04:06:11;;;;;;;10.85;7.67;;;;;;;12.22;100.00;97494.95;3767367;78;44061;-22
2021/05/12 04:11:17;;;;;;;11.33;7.95;;;;;;;12.25;100.00;97491.34;3746638;77;43432;-21
2021/05/12 04:16:23;;;;;;;9.80;7.20;;;;;;;12.24;100.00;97507.72;3761704;78;44059;-22
2021/05/12 04:21:29;;;;;;;12.35;8.48;;;;;;;12.22;100.00;97528.17;3748895;76;43382;-23
2021/05/12 04:26:35;;;;;;;10.05;7.37;;;;;;;12.27;100.00;97519.48;3757516;77;43293;-24
2021/05/12 04:31:42;;;;;;;11.93;8.55;;;;;;;12.22;100.00;97517.38;3738387;77;43460;-22
2021/05/12 04:36:47;;;;;;;11.48;8.55;;;;;;;12.26;100.00;97525.42;3753501;78;43698;-22
2021/05/12 04:41:54;;;;;;;12.70;9.20;;;;;;;12.28;100.00;97523.37;3744616;77;43287;-22
2021/05/12 04:47:00;;;;;;;13.18;9.28;;;;;;;12.29;100.00;97516.91;3750026;77;44007;-22
2021/05/12 04:52:07;;;;;;;14.60;9.73;;;;;;;12.30;100.00;97519.93;3748587;78;44005;-22
2021/05/12 04:57:13;;;;;;;16.62;11.18;;;;;;;12.34;100.00;97531.20;3759295;78;43323;-23
2021/05/12 05:02:19;;;;;;;17.35;11.70;;;;;;;12.39;100.00;97542.77;3750390;77;43362;-22
2021/05/12 05:07:25;;;;;;;18.55;12.45;;;;;;;12.41;100.00;97540.69;3748664;78;43505;-22
2021/05/12 05:12:31;;;;;;;20.85;13.08;;;;;;;12.43;100.00;97546.73;3750245;78;44617;-23
2021/05/12 05:17:39;;;;;;;21.40;14.28;;;;;;;12.50;100.00;97554.40;3754391;77;44451;-22
2021/05/12 05:22:46;;;;;;;19.55;13.32;;;;;;;12.49;100.00;97556.78;3751942;78;43427;-24
2021/05/12 05:27:52;;;;;;;20.80;13.70;;;;;;;12.49;100.00;97552.20;3760789;78;44028;-22
2021/05/12 05:33:01;;;;;;;22.48;14.95;;;;;;;12.50;100.00;97559.80;3753250;78;43730;-22
2021/05/12 05:38:25;;;;;;;25.95;15.25;;;;;;;12.48;100.00;97560.50;3756964;78;26456;-22
2021/05/12 05:43:48;;;;;;;24.27;14.70;;;;;;;12.46;100.00;97560.71;3750831;77;26412;-22
2021/05/12 05:49:12;;;;;;;22.90;14.68;;;;;;;12.40;100.00;97570.11;3747708;77;26409;-22
2021/05/12 05:54:24;;;;;;;24.43;14.23;;;;;;;12.42;100.00;97581.53;3707002;78;26458;-22
2021/05/12 05:59:48;;;;;;;23.75;14.93;;;;;;;12.43;100.00;97572.39;3762100;78;26971;-22
2021/05/12 06:05:14;;;;;;;26.52;15.03;;;;;;;12.35;100.00;97577.41;3758844;78;26565;-22
2021/05/12 06:10:37;;;;;;;23.22;14.75;;;;;;;12.38;100.00;97577.56;3762003;78;26366;-22
2021/05/12 06:16:03;;;;;;;27.60;15.68;;;;;;;12.33;100.00;97578.97;3747939;78;26412;-23
2021/05/12 06:21:10;;;;;;;23.27;14.28;;;;;;;12.31;100.00;97586.42;3668771;78;27148;-23
2021/05/12 06:26:37;;;;;;;24.27;14.83;;;;;;;12.31;100.00;97595.88;3760758;78;26498;-23
2021/05/12 06:31:51;;;;;;;24.25;14.73;;;;;;;12.28;100.00;97588.19;3699787;78;26711;-22
2021/05/12 06:37:17;;;;;;;26.80;15.65;;;;;;;12.35;100.00;97582.81;3750885;78;26466;-22
2021/05/12 06:42:43;;;;;;;26.97;16.25;;;;;;;12.38;100.00;97600.52;3742341;78;26951;-24
2021/05/12 06:47:53;;;;;;;30.02;15.68;;;;;;;12.35;100.00;97604.42;3664313;80;43739;-22
2021/05/12 06:52:58;;;;;;;20.90;13.72;;;;;;;12.38;100.00;97594.59;3758964;78;43790;-23
2021/05/12 06:58:05;;;;;;;16.42;10.80;;;;;;;12.32;100.00;97605.66;3758624;78;44560;-22
2021/05/12 07:03:11;;;;;;;17.67;10.70;;;;;;;12.21;100.00;97603.46;3767909;78;43990;-22
2021/05/12 07:08:17;;;;;;;11.93;8.18;;;;;;;12.18;100.00;97607.89;3726492;78;44082;-23
2021/05/12 07:13:23;;;;;;;9.80;6.58;;;;;;;12.09;100.00;97606.34;3733750;78;44086;-23
2021/05/12 07:18:30;;;;;;;8.38;5.70;;;;;;;11.95;100.00;97626.93;3731467;79;43313;-23
2021/05/12 07:23:38;;;;;;;8.68;6.22;;;;;;;11.86;100.00;97614.05;3729353;78;43326;-23
2021/05/12 07:28:45;;;;;;;10.60;6.55;;;;;;;11.87;100.00;97614.38;3735178;78;43761;-23
2021/05/12 07:33:51;;;;;;;9.63;6.78;;;;;;;11.86;100.00;97611.35;3729180;79;43293;-23
2021/05/12 07:38:58;;;;;;;9.55;6.67;;;;;;;11.81;100.00;97613.27;3731455;79;44054;-23
2021/05/12 07:44:04;;;;;;;9.90;6.30;;;;;;;11.79;100.00;97615.32;3732820;78;44408;-23
2021/05/12 07:49:10;;;;;;;9.20;6.50;;;;;;;11.78;100.00;97608.78;3731317;79;43209;-23
2021/05/12 07:54:16;;;;;;;8.70;6.22;;;;;;;11.75;100.00;97619.44;3728724;78;44050;-23
2021/05/12 07:59:24;;;;;;;8.75;6.40;;;;;;;11.69;100.00;97617.48;3736816;78;43454;-24
2021/05/12 08:04:30;;;;;;;10.00;6.83;;;;;;;11.65;100.00;97621.56;3728933;79;44852;-24
2021/05/12 08:09:36;;;;;;;12.23;7.80;;;;;;;11.65;100.00;97625.13;3752724;77;44204;-24
2021/05/12 08:14:42;;;;;;;10.58;7.12;;;;;;;11.84;100.00;97622.84;3746076;77;43258;-24
2021/05/12 08:19:48;;;;;;;11.68;7.90;;;;;;;11.76;100.00;97637.80;3748964;78;44001;-24
2021/05/12 08:24:54;;;;;;;10.38;7.30;;;;;;;11.78;100.00;97637.11;3748670;78;44014;-24
2021/05/12 08:30:02;;;;;;;11.03;7.60;;;;;;;11.81;100.00;97627.30;3756721;77;44022;-24
2021/05/12 08:35:10;;;;;;;10.60;7.25;;;;;;;11.81;100.00;97624.06;3754305;78;43329;-24
2021/05/12 08:40:17;;;;;;;10.23;6.80;;;;;;;11.84;100.00;97639.89;3745156;78;43050;-24
2021/05/12 08:45:24;;;;;;;10.43;7.17;;;;;;;11.80;100.00;97637.77;3755874;77;43683;-24
2021/05/12 08:50:32;;;;;;;8.43;6.20;;;;;;;11.87;100.00;97638.67;3762565;78;44062;-24
2021/05/12 08:55:39;;;;;;;9.48;7.03;;;;;;;11.84;100.00;97634.98;3749870;78;44092;-24
2021/05/12 09:00:45;;;;;;;11.75;7.97;;;;;;;11.82;100.00;97642.43;3757809;77;43414;-24
2021/05/12 09:05:52;;;;;;;11.63;7.60;;;;;;;11.77;100.00;97636.78;3756655;78;44019;-23
2021/05/12 09:10:59;;;;;;;12.30;7.75;;;;;;;11.80;100.00;97629.67;3785380;77;43678;-23
2021/05/12 09:16:21;;;;;;;11.63;7.62;;;;;;;11.87;100.00;97633.27;3794374;77;44058;-23
2021/05/12 09:21:47;;;;;;;11.38;7.83;;;;;;;11.84;100.00;97624.20;3780897;77;43432;-23
2021/05/12 09:26:54;;;;;;;12.98;9.03;;;;;;;11.88;100.00;97625.50;3790171;77;43377;-23
2021/05/12 09:32:10;;;;;;;12.73;9.08;;;;;;;11.83;100.00;97619.82;3779993;77;44015;-23
2021/05/12 09:37:29;;;;;;;14.43;9.30;;;;;;;11.80;100.00;97626.97;3795046;77;43674;-23
2021/05/12 09:42:36;;;;;;;12.80;9.45;;;;;;;11.82;100.00;97620.84;3782665;77;43712;-24
2021/05/12 09:47:42;;;;;;;14.85;9.58;;;;;;;11.87;100.00;97621.98;3787363;77;43338;-23
2021/05/12 09:52:50;;;;;;;15.20;9.40;;;;;;;11.95;100.00;97628.28;3783807;77;44127;-23
2021/05/12 09:58:00;;;;;;;15.03;10.23;;;;;;;11.93;100.00;97630.33;3766467;77;43710;-23
2021/05/12 10:03:09;;;;;;;14.50;9.80;;;;;;;11.93;100.00;97633.88;3780218;77;43463;-24
2021/05/12 10:08:21;;;;;;;14.25;9.03;;;;;;;11.87;100.00;97640.02;3771235;77;43250;-24
2021/05/12 10:13:27;;;;;;;11.93;8.60;;;;;;;11.82;100.00;97633.84;3732810;78;43671;-24
2021/05/12 10:18:34;;;;;;;10.80;7.70;;;;;;;11.77;100.00;97634.08;3731502;79;43462;-24
2021/05/12 10:23:40;;;;;;;9.68;7.05;;;;;;;11.71;100.00;97628.41;3728795;79;44153;-24
2021/05/12 10:28:46;;;;;;;8.18;6.22;;;;;;;11.74;100.00;97640.70;3731561;78;43730;-24
2021/05/12 10:33:53;;;;;;;7.83;5.45;;;;;;;11.78;100.00;97637.93;3727707;79;43388;-24
2021/05/12 10:39:02;;;;;;;8.63;5.92;;;;;;;11.78;100.00;97639.80;3728037;78;44002;-24
2021/05/12 10:44:15;;;;;;;10.05;7.20;;;;;;;11.87;100.00;97645.41;3727148;78;44158;-24
2021/05/12 10:49:26;;;;;;;11.20;7.92;;;;;;;11.90;100.00;97646.39;3731518;78;44043;-24
2021/05/12 10:54:43;;;;;;;10.53;7.60;;;;;;;11.85;100.00;97644.77;3728976;78;44124;-24
2021/05/12 10:59:54;;;;;;;9.98;7.00;;;;;;;11.77;100.00;97651.09;3734666;78;43365;-23
2021/05/12 11:05:02;;;;;;;9.55;6.90;;;;;;;11.68;100.00;97657.62;3730084;79;43712;-24
2021/05/12 11:10:08;;;;;;;9.68;6.75;;;;;;;11.74;100.00;97655.55;3739809;77;42892;-23
2021/05/12 11:15:14;;;;;;;9.08;6.10;;;;;;;11.76;100.00;97656.17;3766220;77;44043;-24
2021/05/12 11:20:24;;;;;;;8.50;5.28;;;;;;;11.72;100.00;97663.80;3763387;78;43377;-23
2021/05/12 11:25:36;;;;;;;9.25;6.65;;;;;;;11.76;100.00;97660.22;3748173;78;44149;-24
2021/05/12 11:36:12;;;;;;;9.90;6.55;;;;;;;11.76;100.00;97664.27;3758514;78;43769;-24
2021/05/12 11:41:19;;;;;;;12.20;6.90;;;;;;;11.77;100.00;97662.41;3753402;77;43659;-25
2021/05/12 11:46:30;;;;;;;10.03;6.85;;;;;;;11.79;100.00;97663.89;3752969;77;43401;-24
2021/05/12 11:51:39;;;;;;;9.18;6.53;;;;;;;11.83;100.00;97662.50;3745153;78;44098;-25
2021/05/12 11:56:49;;;;;;;9.95;6.92;;;;;;;11.84;100.00;97652.53;3746719;78;43678;-25
2021/05/12 12:02:04;;;;;;;5.83;4.78;;;;;;;11.85;100.00;97652.36;3746670;77;44034;-25
2021/05/12 12:07:10;;;;;;;5.75;4.60;;;;;;;11.85;100.00;97647.46;3749267;78;43243;-25
2021/05/12 12:12:17;;;;;;;6.22;4.62;;;;;;;11.96;100.00;97643.45;3735499;78;44095;-25
2021/05/12 12:17:26;;;;;;;5.25;3.60;;;;;;;12.01;100.00;97647.29;3731805;78;43937;-25
2021/05/12 12:22:34;;;;;;;4.45;3.35;;;;;;;12.02;100.00;97646.77;3728756;79;43359;-24
2021/05/12 12:27:42;;;;;;;5.45;3.10;;;;;;;11.97;100.00;97649.17;3731308;78;43289;-25
2021/05/12 12:32:49;;;;;;;4.20;3.20;;;;;;;11.97;100.00;97636.50;3729020;78;43678;-25
2021/05/12 12:37:55;;;;;;;4.20;3.40;;;;;;;12.06;100.00;97631.87;3728776;79;43655;-25
2021/05/12 12:43:01;;;;;;;4.72;3.72;;;;;;;12.24;100.00;97642.24;3731646;78;44176;-25
2021/05/12 12:48:09;;;;;;;4.35;3.72;;;;;;;12.26;100.00;97648.30;3727379;78;44039;-25
2021/05/12 12:53:18;;;;;;;7.65;5.75;;;;;;;12.27;100.00;97651.32;3730821;79;43981;-25
2021/05/12 12:58:24;;;;;;;3.80;2.87;;;;;;;12.27;100.00;97655.38;3731712;78;43984;-25
2021/05/12 13:03:30;;;;;;;3.92;3.47;;;;;;;12.09;100.00;97650.89;3730731;79;43689;-25
2021/05/12 13:08:40;;;;;;;4.85;3.70;;;;;;;11.97;100.00;97652.70;3730931;79;43957;-25
2021/05/12 13:13:48;;;;;;;4.83;3.67;;;;;;;12.06;100.00;97660.71;3675456;79;44113;-25
2021/05/12 13:18:57;;;;;;;6.97;4.83;;;;;;;11.97;100.00;97660.80;3744738;77;43439;-24
2021/05/12 13:24:06;;;;;;;6.65;4.92;;;;;;;12.09;100.00;97663.04;3761482;78;43686;-25
2021/05/12 13:29:15;;;;;;;5.45;4.30;;;;;;;12.00;100.00;97665.00;3761418;77;43689;-26
2021/05/12 13:34:23;;;;;;;7.45;4.83;;;;;;;12.00;100.00;97660.46;3744465;78;44056;-25
2021/05/12 13:39:36;;;;;;;5.90;4.78;;;;;;;11.97;100.00;97673.47;3747310;78;43444;-25
2021/05/12 13:44:38;;;;;;;4.70;3.90;;;;;;;11.68;100.00;97671.97;3752040;77;43492;-26
2021/05/12 13:49:44;;;;;;;5.17;3.90;;;;;;;11.44;100.00;97670.90;3749891;77;44040;-26
2021/05/12 13:54:58;;;;;;;5.00;4.40;;;;;;;11.36;100.00;97675.86;3741282;77;43669;-25
2021/05/12 14:00:09;;;;;;;6.45;4.42;;;;;;;11.28;100.00;97684.87;3741769;77;44038;-25
2021/05/12 14:05:13;;;;;;;5.40;4.62;;;;;;;11.23;100.00;97679.21;3754820;77;26345;-25
2021/05/12 14:10:19;;;;;;;6.15;5.00;;;;;;;11.19;100.00;97676.55;3737676;78;43681;-25
2021/05/12 14:15:35;;;;;;;7.22;4.90;;;;;;;11.22;100.00;97666.22;3748148;78;43572;-25
2021/05/12 14:20:37;;;;;;;8.28;5.80;;;;;;;11.29;100.00;97672.24;3752314;78;43994;-25
2021/05/12 14:25:44;;;;;;;10.90;7.42;;;;;;;11.49;100.00;97671.16;3740685;78;43726;-24
2021/05/12 14:30:52;;;;;;;11.12;7.28;;;;;;;11.47;100.00;97677.25;3732701;78;43310;-25
2021/05/12 14:35:58;;;;;;;10.48;6.75;;;;;;;11.38;100.00;97683.27;3759030;78;43411;-25
2021/05/12 14:41:05;;;;;;;11.60;7.80;;;;;;;11.27;100.00;97691.28;3757846;78;44004;-25
2021/05/12 14:46:12;;;;;;;10.55;7.10;;;;;;;11.28;100.00;97692.95;3753872;78;43689;-25
2021/05/12 14:51:21;;;;;;;10.78;7.17;;;;;;;11.17;100.00;97697.45;3746352;78;44007;-25
2021/05/12 14:56:34;;;;;;;11.35;7.87;;;;;;;11.12;100.00;97686.36;3749470;78;44057;-25
2021/05/12 15:07:15;;;;;;;11.88;7.30;;;;;;;11.13;100.00;97682.65;3701568;78;43671;-25
2021/05/12 15:12:22;;;;;;;12.03;7.47;;;;;;;11.13;100.00;97688.90;3709322;78;43678;-24
2021/05/12 15:17:28;;;;;;;8.80;6.72;;;;;;;11.16;100.00;97686.34;3710462;78;43349;-25
2021/05/12 15:22:35;;;;;;;10.13;6.40;;;;;;;11.09;100.00;97680.34;3718061;79;43501;-24
2021/05/12 15:27:41;;;;;;;9.33;6.72;;;;;;;11.14;100.00;97663.62;3708119;78;44055;-24
2021/05/12 15:32:50;;;;;;;10.70;7.03;;;;;;;11.17;100.00;97663.75;3709408;79;43710;-24
2021/05/12 15:37:56;;;;;;;9.53;6.80;;;;;;;11.19;100.00;97667.11;3708244;79;43407;-25
2021/05/12 15:43:02;;;;;;;11.03;7.42;;;;;;;11.14;100.00;97668.16;3710294;78;43980;-24
2021/05/12 15:48:10;;;;;;;11.35;6.97;;;;;;;11.16;100.00;97662.08;3708863;79;43692;-24
2021/05/12 15:53:18;;;;;;;10.58;7.33;;;;;;;11.04;100.00;97675.17;3705836;79;43625;-23
2021/05/12 15:58:24;;;;;;;11.38;7.20;;;;;;;11.07;100.00;97674.30;3714336;78;43726;-23
2021/05/12 16:03:30;;;;;;;12.78;7.58;;;;;;;11.06;100.00;97675.31;3704542;78;44036;-23
2021/05/12 16:08:36;;;;;;;9.33;5.92;;;;;;;10.98;100.00;97670.01;3710825;79;43436;-24
2021/05/12 16:13:41;;;;;;;12.07;7.12;;;;;;;10.91;100.00;97667.20;3700358;78;43590;-23
2021/05/12 16:18:47;;;;;;;10.30;7.40;;;;;;;10.91;100.00;97673.08;3695958;80;42556;-24
2021/05/12 16:23:54;;;;;;;12.55;7.05;;;;;;;10.89;100.00;97669.72;3626208;82;44049;-24
2021/05/12 16:29:01;;;;;;;10.38;7.33;;;;;;;10.90;100.00;97672.75;3699003;79;43714;-23
2021/05/12 16:34:07;;;;;;;11.03;7.03;;;;;;;10.88;100.00;97672.09;3625774;80;43718;-23
2021/05/12 16:39:14;;;;;;;12.03;7.28;;;;;;;10.88;100.00;97665.36;3695790;80;43724;-24
2021/05/12 16:44:20;;;;;;;10.95;7.90;;;;;;;10.90;100.00;97666.88;3631470;80;44073;-23
2021/05/12 16:49:27;;;;;;;9.78;7.72;;;;;;;10.84;100.00;97668.92;3695382;80;43336;-23
2021/05/12 16:54:34;;;;;;;9.95;7.17;;;;;;;10.76;100.00;97671.17;3561291;82;44176;-24
2021/05/12 16:59:40;;;;;;;9.65;6.50;;;;;;;10.75;100.00;97664.14;3696034;79;44194;-24
2021/05/12 17:04:46;;;;;;;8.23;6.03;;;;;;;10.67;100.00;97660.14;3628487;80;44849;-24
2021/05/12 17:09:53;;;;;;;8.70;5.72;;;;;;;10.59;100.00;97673.16;3694460;79;44935;-24
2021/05/12 17:15:00;;;;;;;7.15;5.53;;;;;;;10.54;100.00;97677.41;3662214;79;43466;-24
2021/05/12 17:20:09;;;;;;;9.05;6.35;;;;;;;10.55;100.00;97671.02;3729619;79;43369;-24
2021/05/12 17:25:18;;;;;;;10.93;7.00;;;;;;;10.53;100.00;97667.66;3663443;81;43587;-23
2021/05/12 17:30:28;;;;;;;9.67;6.77;;;;;;;10.51;100.00;97668.37;3729081;78;69452;-23
2021/05/12 17:35:35;;;;;;;9.73;7.22;;;;;;;10.47;100.00;97660.64;3731216;78;44562;-23
2021/05/12 17:40:42;;;;;;;9.88;6.95;;;;;;;10.54;100.00;97657.22;3729114;78;43674;-23
2021/05/12 17:45:49;;;;;;;12.10;8.33;;;;;;;10.57;100.00;97674.37;3728419;78;44054;-23
2021/05/12 17:50:59;;;;;;;14.85;9.13;;;;;;;10.57;100.00;97664.45;3729465;78;43393;-23
2021/05/12 17:56:07;;;;;;;12.93;9.25;;;;;;;10.62;100.00;97672.81;3730844;79;44182;-23
2021/05/12 18:01:14;;;;;;;17.55;9.95;;;;;;;10.64;100.00;97691.51;3728920;78;75251;-24
2021/05/12 18:06:20;;;;;;;17.98;11.65;;;;;;;10.64;100.00;97687.47;3730925;79;44045;-24
2021/05/12 18:11:35;;;;;;;22.70;13.00;;;;;;;10.64;100.00;97704.97;3726974;78;44408;-24
2021/05/12 18:22:00;;;;;;;23.60;14.75;;;;;;;10.71;100.00;97709.11;3567962;83;43719;-24
2021/05/12 18:27:07;;;;;;;23.73;14.98;;;;;;;10.70;100.00;97701.55;3696197;80;43726;-24
2021/05/12 18:32:14;;;;;;;27.77;16.45;;;;;;;10.73;100.00;97707.08;3630885;80;43988;-24
2021/05/12 18:37:28;;;;;;;25.60;16.62;;;;;;;10.78;100.00;97712.77;3695969;80;43745;-24
2021/05/12 18:42:30;;;;;;;27.17;17.70;;;;;;;10.77;100.00;97711.92;3694913;79;42963;-24
2021/05/12 18:47:40;;;;;;;28.47;18.10;;;;;;;10.75;100.00;97699.16;3625680;80;44160;-24
2021/05/12 18:52:44;;;;;;;29.00;17.62;;;;;;;10.75;100.00;97692.43;3650509;80;43358;-24
2021/05/12 18:57:50;;;;;;;25.90;16.30;;;;;;;10.72;100.00;97691.92;3801922;77;43492;-24
2021/05/12 19:02:59;;;;;;;24.25;15.18;;;;;;;10.68;100.00;97688.77;3726417;79;44065;-24
2021/05/12 19:08:11;;;;;;;27.85;16.97;;;;;;;10.65;100.00;97702.58;3796465;77;44584;-25
2021/05/12 19:19:01;;;;;;;26.60;17.35;;;;;;;10.59;100.00;97699.27;3785064;77;43316;-23
2021/05/12 19:24:04;;;;;;;26.80;17.62;;;;;;;10.57;100.00;97703.50;3699620;78;44004;-23
2021/05/12 19:29:23;;;;;;;31.00;18.90;;;;;;;10.57;100.00;97710.73;3798314;77;44092;-23
2021/05/12 19:40:09;;;;;;;29.60;18.50;;;;;;;10.52;100.00;97721.22;3799677;77;44093;-23
2021/05/12 19:45:15;;;;;;;27.58;18.80;;;;;;;10.48;100.00;97722.05;3797828;77;43399;-24
2021/05/12 19:50:22;;;;;;;28.80;18.00;;;;;;;10.42;100.00;97720.09;3797796;77;43722;-23
2021/05/12 19:55:32;;;;;;;27.22;17.48;;;;;;;10.39;100.00;97725.33;3800252;77;44095;-23
2021/05/12 20:00:37;;;;;;;28.77;17.23;;;;;;;10.34;100.00;97731.71;3798263;77;43348;-23
2021/05/12 20:05:48;;;;;;;24.95;16.82;;;;;;;10.35;100.00;97736.60;3799150;77;44776;-24
2021/05/12 20:11:00;;;;;;;24.05;16.55;;;;;;;10.30;100.00;97739.30;3797503;77;43335;-23
2021/05/12 20:16:03;;;;;;;19.55;12.93;;;;;;;10.28;100.00;97744.55;3793836;77;43206;-23
2021/05/12 20:21:11;;;;;;;13.53;10.10;;;;;;;10.33;100.00;97748.88;3791238;77;43343;-24
2021/05/12 20:26:17;;;;;;;14.78;9.20;;;;;;;10.32;100.00;97739.12;3790217;77;45115;-24
2021/05/12 20:31:24;;;;;;;11.55;8.33;;;;;;;10.32;100.00;97720.27;3789533;77;44025;-24
2021/05/12 20:42:07;;;;;;;9.48;6.25;;;;;;;10.16;100.00;97730.13;3673693;79;44078;-24
2021/05/12 20:47:13;;;;;;;8.63;5.62;;;;;;;10.17;100.00;97731.78;3792557;77;44517;-24
2021/05/12 20:52:20;;;;;;;6.33;4.72;;;;;;;10.11;100.00;97728.98;3791184;77;43330;-24
2021/05/12 20:57:26;;;;;;;6.00;4.72;;;;;;;10.01;100.00;97719.77;3792204;77;43498;-24
2021/05/12 21:02:32;;;;;;;9.25;4.80;;;;;;;10.03;100.00;97713.70;3791549;77;43405;-24
2021/05/12 21:07:38;;;;;;;7.67;4.70;;;;;;;9.98;100.00;97711.55;3792250;77;43673;-24
2021/05/12 21:12:46;;;;;;;6.03;5.10;;;;;;;9.99;100.00;97711.02;3775736;77;43411;-23
2021/05/12 21:17:51;;;;;;;8.08;4.97;;;;;;;9.97;100.00;97710.36;3820505;76;43768;-24
2021/05/12 21:23:19;;;;;;;8.45;5.22;;;;;;;9.97;100.00;97703.62;3813569;76;43420;-23
2021/05/12 21:28:16;;;;;;;8.78;5.37;;;;;;;9.96;100.00;97710.02;3778257;76;44804;-24
2021/05/12 21:33:22;;;;;;;8.80;6.05;;;;;;;9.94;100.00;97693.20;3730004;78;43724;-24
2021/05/12 21:38:29;;;;;;;8.48;6.03;;;;;;;9.94;100.00;97697.24;3738316;78;44054;-24
2021/05/12 21:43:35;;;;;;;8.85;6.17;;;;;;;9.88;100.00;97694.74;3730134;78;44414;-25
2021/05/12 21:48:41;;;;;;;11.57;6.73;;;;;;;9.93;100.00;97680.80;3731144;78;44995;-25
2021/05/12 21:53:47;;;;;;;10.03;6.70;;;;;;;9.91;100.00;97665.33;3730353;78;44095;-26
2021/05/12 21:58:53;;;;;;;9.38;6.22;;;;;;;9.82;100.00;97655.11;3739752;78;44083;-25
2021/05/12 22:04:03;;;;;;;9.08;5.83;;;;;;;9.76;100.00;97651.27;3737174;78;43729;-25
2021/05/12 22:25:32;;;;;;;8.68;5.95;;;;;;;9.85;100.00;97656.11;3768805;77;44139;-24
2021/05/12 22:30:37;;;;;;;9.28;6.35;;;;;;;9.82;100.00;97651.90;3644059;80;44698;-26
2021/05/12 22:35:48;;;;;;;7.97;5.53;;;;;;;9.86;100.00;97657.27;3770318;77;44069;-24
2021/05/12 22:40:53;;;;;;;7.53;5.20;;;;;;;9.85;100.00;97658.28;3706733;78;44155;-26
2021/05/12 22:45:59;;;;;;;6.70;5.17;;;;;;;9.88;100.00;97651.70;3767429;77;43427;-25
2021/05/12 22:51:06;;;;;;;6.17;4.50;;;;;;;9.79;100.00;97660.34;3768440;77;44062;-24
2021/05/12 22:56:42;;;;;;;6.53;4.83;;;;;;;9.77;100.00;97658.33;3768303;77;69122;-24
2021/05/12 23:01:38;;;;;;;6.22;4.55;;;;;;;9.71;100.00;97660.36;3764847;77;44052;-25
2021/05/12 23:06:44;;;;;;;6.97;4.45;;;;;;;9.69;100.00;97663.75;3769544;77;44042;-24
2021/05/12 23:11:50;;;;;;;7.30;4.60;;;;;;;9.59;100.00;97656.37;3705798;78;44163;-24
2021/05/12 23:16:56;;;;;;;5.35;4.28;;;;;;;9.58;100.00;97657.41;3749141;77;44145;-25
2021/05/12 23:22:03;;;;;;;5.10;4.47;;;;;;;9.47;100.00;97637.92;3719906;78;43601;-25
2021/05/12 23:27:09;;;;;;;5.42;3.60;;;;;;;9.43;100.00;97638.45;3721404;78;43415;-25
2021/05/12 23:32:15;;;;;;;5.08;3.22;;;;;;;9.35;100.00;97635.31;3720201;79;43317;-25
2021/05/12 23:37:22;;;;;;;3.93;2.97;;;;;;;9.33;100.00;97627.92;3722838;78;44441;-25
2021/05/12 23:42:31;;;;;;;4.90;2.90;;;;;;;9.32;100.00;97620.34;3715231;79;42940;-24
2021/05/12 23:47:37;;;;;;;4.20;3.00;;;;;;;9.23;100.00;97618.17;3722042;78;44049;-25
2021/05/12 23:52:43;;;;;;;2.72;2.50;;;;;;;9.19;100.00;97609.30;3720354;79;44070;-25
2021/05/12 23:57:49;;;;;;;3.72;2.60;;;;;;;9.12;100.00;97601.08;3723483;79;44038;-25
